Latest Weather Observations for Hobart Airport

IDT60901

Issued at 5:11 pm EST Sunday 31 July 2016 (issued every 10 minutes, with the page automatically refreshed every 10 minutes)

About weather observations | Map of Hobart area stations | Latest observations for Hobart area | Other Formats
Station Details ID: 094008 Name: HOBART AIRPORT Lat: -42.83 Lon: 147.50 Height: 4.0 m
Data from the previous 72 hours. | See also: Recent months at Hobart Airport
Date/Time
EST
Temp
°C
App
Temp
°C
Dew
Point
°C
Rel
Hum
%
Delta-T
°C
Wind Press
QNH
hPa
Press
MSL
hPa
Rain since
9am
mm
Dir  Spd
km/h
Gust
km/h
Spd
kts
Gust
kts
31/05:00pm 11.7 6.4 1.6 50 4.3 WNW 19 24 10 13 1009.5 1009.5 0.0
31/04:30pm 12.6 7.2 1.0 45 4.9 NW 19 30 10 16 1009.2 1009.2 0.0
31/04:00pm 13.1 7.5 1.2 44 5.1 NW 20 30 11 16 1008.9 1008.9 0.0
31/03:30pm 13.4 7.1 1.6 44 5.1 WNW 24 32 13 17 1008.9 1008.9 0.0
31/03:00pm 13.7 7.4 1.4 43 5.3 NW 24 35 13 19 1008.9 1008.9 0.0
31/02:30pm 13.8 7.4 0.9 41 5.5 NW 24 33 13 18 1008.6 1008.6 0.0
31/02:00pm 13.9 8.4 2.0 44 5.2 WNW 20 28 11 15 1008.3 1008.3 0.0
31/01:30pm 13.3 7.0 3.8 52 4.3 NW 26 33 14 18 1008.3 1008.3 0.0
31/01:00pm 12.8 7.9 4.2 56 3.9 NW 19 26 10 14 1008.4 1008.4 0.0
31/12:30pm 13.5 9.2 3.2 49 4.6 WNW 15 19 8 10 1008.8 1008.8 0.0
31/12:00pm 12.6 8.2 2.9 51 4.3 WNW 15 24 8 13 1008.6 1008.6 0.0
31/11:30am 12.4 7.1 3.2 53 4.1 NW 20 28 11 15 1008.4 1008.4 0.0
31/11:00am 11.7 6.6 4.2 60 3.4 NW 20 30 11 16 1008.5 1008.5 0.0
31/10:30am 12.1 6.5 3.6 56 3.8 NW 22 30 12 16 1008.1 1008.1 0.0
31/10:00am 11.4 6.3 2.9 56 3.7 NW 19 26 10 14 1007.8 1007.8 0.0
31/09:30am 10.9 5.7 2.6 56 3.6 NW 19 26 10 14 1007.5 1007.5 0.0
31/09:00am 10.3 6.1 4.0 65 2.8 NNW 15 22 8 12 1006.9 1006.9 0.4
31/08:30am 9.8 3.4 3.1 63 2.9 NW 26 32 14 17 1006.3 1006.3 0.2
31/08:00am 9.4 5.0 2.9 64 2.8 NNW 15 24 8 13 1005.8 1005.8 0.2
31/07:30am 8.8 5.2 3.2 68 2.4 NNE 11 17 6 9 1005.6 1005.6 0.2
31/07:00am 9.3 3.2 2.8 64 2.8 WNW 24 35 13 19 1004.4 1004.4 0.2
31/06:33am 10.2 3.2 1.9 56 3.5 W 28 48 15 26 1004.5 1004.5 0.2
31/06:30am 10.1 4.3 2.4 59 3.3 W 22 30 12 16 1004.5 1004.5 0.2
31/06:00am 10.5 4.4 2.9 59 3.3 WNW 24 32 13 17 1004.1 1004.1 0.2
31/05:30am 10.5 4.7 2.1 56 3.6 NW 22 28 12 15 1003.6 1003.6 0.2
31/05:00am 10.0 4.6 2.3 59 3.3 NW 20 30 11 16 1003.0 1003.0 0.2
31/04:30am 10.6 4.5 2.5 57 3.5 NNW 24 33 13 18 1002.7 1002.7 0.2
31/04:00am 11.4 6.7 3.3 57 3.6 NNW 17 24 9 13 1002.7 1002.7 0.2
31/03:30am 10.3 7.3 6.0 75 2.0 NNW 11 15 6 8 1002.5 1002.5 0.2
31/03:00am 10.5 7.2 6.5 76 1.9 N 13 22 7 12 1002.4 1002.4 0.2
31/02:30am 11.0 4.9 6.6 74 2.1 NNW 28 37 15 20 1002.1 1002.1 0.2
31/02:28am 11.1 5.0 6.5 73 2.2 NNW 28 37 15 20 1002.1 1002.1 0.2
31/02:00am 10.8 6.9 7.3 79 1.7 NNW 17 28 9 15 1002.3 1002.3 0.0
31/01:30am 12.1 7.4 6.2 67 2.8 N 20 32 11 17 1001.4 1001.4 0.0
31/01:00am 11.9 7.2 6.0 67 2.8 N 20 30 11 16 1001.7 1001.7 0.0
31/12:30am 11.6 6.9 6.1 69 2.6 N 20 28 11 15 1002.4 1002.4 0.0
31/12:00am 11.0 5.1 5.6 69 2.5 N 26 35 14 19 1003.2 1003.2 0.0
 
Date/Time
EST
Temp
°C
App
Temp
°C
Dew
Point
°C
Rel
Hum
%
Delta-T
°C
Wind Press
QNH
hPa
Press
MSL
hPa
Rain since
9am
mm
Dir  Spd
km/h
Gust
km/h
Spd
kts
Gust
kts
30/11:30pm 10.1 5.9 5.5 73 2.1 N 17 28 9 15 1003.5 1003.5 0.0
30/11:00pm 9.7 4.9 5.8 77 1.8 N 20 30 11 16 1004.6 1004.6 0.0
30/10:30pm 9.9 5.6 5.3 73 2.1 N 17 28 9 15 1005.3 1005.3 0.0
30/10:00pm 9.6 4.9 5.2 74 2.0 N 19 28 10 15 1006.0 1006.0 0.0
30/09:30pm 8.9 6.2 5.4 79 1.6 N 9 15 5 8 1006.4 1006.4 0.0
30/09:00pm 9.2 6.3 4.7 73 2.0 N 9 13 5 7 1007.5 1007.5 0.0
30/08:30pm 9.0 4.9 4.2 72 2.1 NW 15 17 8 9 1007.8 1007.8 0.0
30/08:00pm 8.6 4.9 4.3 74 1.9 N 13 17 7 9 1007.9 1007.9 0.0
30/07:30pm 9.0 3.7 3.2 67 2.5 NNW 20 28 11 15 1008.6 1008.6 0.0
30/07:00pm 8.7 5.5 2.8 66 2.5 N 9 13 5 7 1009.3 1009.3 0.0
30/06:30pm 8.7 5.0 2.3 64 2.7 NNW 11 17 6 9 1009.4 1009.4 0.0
30/06:00pm 9.1 5.3 1.9 60 3.0 N 11 17 6 9 1009.7 1009.7 0.0
30/05:30pm 8.7 4.6 2.5 65 2.6 N 13 15 7 8 1010.1 1010.1 0.0
30/05:00pm 9.0 4.1 2.1 62 2.9 N 17 22 9 12 1010.3 1010.3 0.0
30/04:30pm 9.4 5.3 2.0 60 3.1 NNW 13 19 7 10 1011.0 1011.0 0.0
30/04:00pm 10.1 5.5 1.5 55 3.6 NNW 15 19 8 10 1011.5 1011.5 0.0
30/03:30pm 10.2 5.3 2.2 57 3.4 NNW 17 28 9 15 1012.2 1012.2 0.0
30/03:00pm 10.3 5.3 1.1 53 3.8 NNW 17 26 9 14 1012.3 1012.3 0.0
30/02:30pm 10.6 6.3 0.9 51 4.0 N 13 22 7 12 1012.6 1012.6 0.0
30/02:00pm 10.4 6.4 0.6 50 4.0 N 11 19 6 10 1013.3 1013.4 0.0
30/01:30pm 10.5 6.5 0.5 50 4.1 NW 11 17 6 9 1014.1 1014.2 0.0
30/01:00pm 9.6 5.5 0.1 51 3.8 NW 11 15 6 8 1014.8 1014.9 0.0
30/12:30pm 9.4 5.4 0.2 52 3.7 NW 11 15 6 8 1015.6 1015.7 0.0
30/12:00pm 9.0 4.5 -0.1 53 3.6 NNW 13 19 7 10 1016.3 1016.4 0.0
30/11:30am 8.7 4.0 0.8 57 3.2 NNW 15 20 8 11 1017.2 1017.3 0.0
30/11:00am 8.2 3.9 1.0 60 2.9 NNW 13 19 7 10 1017.7 1017.8 0.0
30/10:30am 7.5 3.5 0.7 62 2.7 NW 11 15 6 8 1018.2 1018.3 0.0
30/10:00am 6.5 3.3 0.6 66 2.3 NNE 7 11 4 6 1018.5 1018.6 0.0
30/09:30am 4.9 -0.2 1.0 76 1.5 NW 17 20 9 11 1018.8 1018.9 0.0
30/09:00am 4.7 0.4 0.8 76 1.5 NW 13 17 7 9 1019.0 1019.1 0.8
30/08:30am 3.8 -0.9 0.9 81 1.1 NW 15 19 8 10 1018.9 1019.0 0.8
30/08:00am 2.5 -0.8 0.1 84 0.9 WNW 7 11 4 6 1018.6 1018.7 0.8
30/07:30am 3.1 0.4 0.4 82 1.0 N 4 7 2 4 1018.5 1018.6 0.8
30/07:00am 2.9 -1.5 0.2 82 1.0 NNW 13 17 7 9 1018.2 1018.3 0.8
30/06:30am 1.6 -2.9 -0.3 87 0.7 NW 13 15 7 8 1017.9 1018.0 0.8
30/06:00am 2.5 -1.3 -0.8 79 1.2 NW 9 11 5 6 1017.8 1017.9 0.8
30/05:30am 3.1 -1.4 -0.4 78 1.3 NW 13 13 7 7 1017.9 1018.0 0.8
30/05:00am 2.5 -1.1 0.4 86 0.8 NNW 9 11 5 6 1017.8 1017.9 0.8
30/04:30am 3.6 -0.2 -0.5 74 1.5 NW 9 15 5 8 1018.0 1018.1 0.8
30/04:00am 3.8 -0.3 -0.5 73 1.6 NW 11 15 6 8 1017.8 1017.9 0.8
30/03:30am 5.0 0.1 -0.6 67 2.1 WNW 15 17 8 9 1017.3 1017.4 0.8
30/03:00am 5.3 0.5 0.4 70 1.9 NW 15 17 8 9 1017.5 1017.6 0.8
30/02:30am 4.3 0.7 0.4 76 1.5 NNW 9 11 5 6 1017.4 1017.5 0.8
30/02:00am 4.6 2.5 -0.5 69 1.9 CALM 0 6 0 3 1017.4 1017.5 0.8
30/01:30am 5.2 1.4 -0.4 67 2.1 NNE 9 13 5 7 1017.1 1017.2 0.8
30/01:00am 6.5 4.0 -0.9 59 2.8 WNW 2 7 1 4 1017.0 1017.1 0.8
30/12:30am 7.2 2.6 -1.3 55 3.2 WSW 13 17 7 9 1016.8 1016.9 0.8
30/12:00am 8.5 3.0 -1.8 48 3.9 SSW 17 37 9 20 1016.3 1016.4 0.8
 
Date/Time
EST
Temp
°C
App
Temp
°C
Dew
Point
°C
Rel
Hum
%
Delta-T
°C
Wind Press
QNH
hPa
Press
MSL
hPa
Rain since
9am
mm
Dir  Spd
km/h
Gust
km/h
Spd
kts
Gust
kts
29/11:30pm 7.4 2.9 -0.3 58 3.0 WSW 13 20 7 11 1016.0 1016.1 0.8
29/11:00pm 7.7 2.4 -0.6 55 3.2 WSW 17 24 9 13 1015.8 1015.9 0.8
29/10:30pm 8.0 2.8 -0.2 56 3.2 W 17 26 9 14 1015.3 1015.4 0.8
29/10:00pm 8.3 1.5 0.9 59 3.0 WSW 26 32 14 17 1014.5 1014.6 0.8
29/09:30pm 8.8 1.9 0.3 55 3.4 SW 26 35 14 19 1014.4 1014.5 0.8
29/09:00pm 8.7 3.0 0.5 56 3.3 SW 20 30 11 16 1014.2 1014.3 0.8
29/08:30pm 8.4 3.2 0.4 57 3.2 WSW 17 20 9 11 1013.7 1013.8 0.8
29/08:00pm 9.0 1.6 -0.4 52 3.7 SW 28 39 15 21 1013.4 1013.5 0.8
29/07:30pm 9.0 0.7 -0.1 53 3.6 SW 33 48 18 26 1012.8 1012.8 0.8
29/07:12pm 9.5 2.2 -0.3 50 3.9 WSW 28 52 15 28 1012.1 1012.1 0.8
29/07:00pm 9.4 3.3 0.2 52 3.7 SW 22 28 12 15 1011.6 1011.6 0.8
29/06:30pm 9.8 1.5 -0.5 48 4.1 SW 33 46 18 25 1010.7 1010.7 0.8
29/06:00pm 10.3 1.2 -0.8 46 4.4 SW 37 52 20 28 1010.0 1010.0 0.8
29/05:30pm 10.2 1.1 1.6 55 3.6 SW 39 57 21 31 1008.9 1008.9 0.8
29/05:19pm 10.5 2.6 2.0 55 3.6 SW 33 59 18 32 1008.6 1008.6 0.8
29/05:00pm 10.5 2.7 4.8 68 2.6 SW 35 44 19 24 1008.2 1008.2 0.8
29/04:30pm 11.5 4.1 4.2 61 3.3 SW 32 43 17 23 1007.2 1007.2 0.8
29/04:00pm 11.2 6.7 6.3 72 2.3 WNW 19 26 10 14 1006.7 1006.7 0.8
29/03:30pm 11.2 5.9 6.6 73 2.2 WNW 24 33 13 18 1006.1 1006.1 0.8
29/03:00pm 12.5 5.8 3.9 56 3.9 WNW 28 33 15 18 1005.6 1005.6 0.2
29/02:30pm 13.0 6.9 2.9 50 4.5 WNW 24 37 13 20 1005.1 1005.1 0.2
29/02:23pm 13.0 5.3 3.4 52 4.3 WNW 33 52 18 28 1004.9 1004.9 0.2
29/02:00pm 12.9 4.9 3.6 53 4.2 W 35 50 19 27 1004.6 1004.6 0.2
29/01:46pm 13.0 5.4 3.7 53 4.2 WNW 33 52 18 28 1004.8 1004.8 0.2
29/01:30pm 13.1 5.4 3.3 51 4.4 WNW 33 46 18 25 1004.6 1004.6 0.2
29/01:16pm 12.9 5.2 3.6 53 4.2 WNW 33 54 18 29 1004.6 1004.6 0.2
29/01:00pm 12.5 5.1 4.9 60 3.5 WNW 33 41 18 22 1005.1 1005.1 0.2
29/12:30pm 12.2 5.4 5.3 62 3.2 WNW 30 39 16 21 1005.6 1005.6 0.2
29/12:00pm 13.2 5.2 4.0 53 4.2 WNW 35 46 19 25 1005.4 1005.4 0.2
29/11:35am 12.7 4.0 4.1 56 3.9 WNW 39 59 21 32 1005.5 1005.5 0.2
29/11:30am 12.3 4.6 5.2 62 3.3 WNW 35 48 19 26 1005.4 1005.4 0.2
29/11:12am 12.6 6.4 6.1 64 3.1 WNW 28 50 15 27 1006.1 1006.1 0.2
29/11:00am 12.7 8.6 6.4 65 3.0 NNW 17 26 9 14 1006.1 1006.1 0.2
29/10:45am 11.4 6.6 7.3 76 2.0 WNW 22 33 12 18 1006.4 1006.4 0.2
29/10:30am 10.9 6.7 7.4 79 1.7 W 19 26 10 14 1006.8 1006.8 0.2
29/10:00am 11.2 4.6 6.1 71 2.4 NW 30 44 16 24 1006.5 1006.5 0.0
29/09:52am 11.8 6.8 4.6 61 3.3 NW 20 32 11 17 1006.3 1006.3 0.0
29/09:30am 11.4 6.0 4.3 61 3.2 NW 22 32 12 17 1006.4 1006.4 0.0
29/09:00am 11.4 7.0 4.6 63 3.1 NNW 17 28 9 15 1006.3 1006.3 0.0
29/08:30am 11.3 6.6 3.4 58 3.5 NNW 17 26 9 14 1006.7 1006.7 0.0
29/08:00am 10.0 4.9 4.2 67 2.6 NNW 20 30 11 16 1006.8 1006.8 0.0
29/07:30am 9.8 4.8 3.6 65 2.7 NNW 19 28 10 15 1007.0 1007.0 0.0
29/07:00am 10.0 4.4 3.4 63 2.9 NW 22 30 12 16 1006.8 1006.8 0.0
29/06:30am 10.0 4.4 3.6 64 2.8 NW 22 28 12 15 1007.0 1007.0 0.0
29/06:00am 9.5 4.5 3.8 67 2.5 NNW 19 26 10 14 1007.0 1007.0 0.0
29/05:30am 9.5 4.0 3.8 67 2.5 NW 22 30 12 16 1007.0 1007.0 0.0
29/05:00am 9.3 5.2 4.1 70 2.3 NNW 15 20 8 11 1007.4 1007.4 0.0
29/04:30am 9.5 5.4 4.3 70 2.3 NNW 15 20 8 11 1007.5 1007.5 0.0
29/04:00am 9.5 5.0 4.1 69 2.4 NNW 17 24 9 13 1007.5 1007.5 0.0
29/03:30am 9.8 5.6 3.9 66 2.6 NNW 15 20 8 11 1008.0 1008.0 0.0
29/03:00am 10.5 4.9 3.2 60 3.2 NNW 22 30 12 16 1008.2 1008.2 0.0
29/02:30am 10.2 5.0 3.3 62 3.0 NNW 20 28 11 15 1008.4 1008.4 0.0
29/02:00am 10.1 4.9 3.5 63 2.9 NNW 20 30 11 16 1008.8 1008.8 0.0
29/01:30am 9.8 4.9 3.9 66 2.6 NNW 19 28 10 15 1009.0 1009.0 0.0
29/01:00am 10.1 5.9 3.7 64 2.8 NNW 15 20 8 11 1009.2 1009.2 0.0
29/12:30am 9.9 6.1 4.0 67 2.6 NNW 13 19 7 10 1009.6 1009.6 0.0
29/12:00am 9.9 6.1 3.8 66 2.7 N 13 20 7 11 1009.7 1009.7 0.0
 
Date/Time
EST
Temp
°C
App
Temp
°C
Dew
Point
°C
Rel
Hum
%
Delta-T
°C
Wind Press
QNH
hPa
Press
MSL
hPa
Rain since
9am
mm
Dir  Spd
km/h
Gust
km/h
Spd
kts
Gust
kts
28/11:30pm 10.2 6.0 3.9 65 2.8 NNW 15 28 8 15 1010.2 1010.2 0.0
28/11:00pm 10.3 6.1 3.7 63 2.9 N 15 22 8 12 1010.2 1010.2 0.0
28/10:30pm 10.4 5.4 3.6 63 3.0 NW 19 24 10 13 1010.5 1010.5 0.0
28/10:00pm 10.3 5.3 3.7 63 2.9 NNW 19 24 10 13 1010.5 1010.5 0.0
28/09:30pm 10.7 5.5 3.7 62 3.1 NNW 20 28 11 15 1010.7 1010.7 0.0
28/09:00pm 10.3 5.4 4.0 65 2.8 NNW 19 30 10 16 1010.8 1010.8 0.0
28/08:30pm 11.2 5.1 2.9 56 3.6 NW 24 30 13 16 1010.7 1010.7 0.0
28/08:00pm 11.4 3.8 2.6 54 3.8 NW 32 48 17 26 1010.8 1010.8 0.0
28/07:30pm 11.2 4.3 2.7 56 3.7 NW 28 35 15 19 1010.8 1010.8 0.0
28/07:00pm 11.7 3.9 1.9 51 4.2 WNW 32 52 17 28 1010.6 1010.6 0.0
28/06:30pm 11.1 3.8 2.2 54 3.8 NW 30 39 16 21 1010.0 1010.0 0.0
28/06:00pm 12.1 6.5 1.2 47 4.6 NW 20 32 11 17 1009.8 1009.8 0.0
28/05:30pm 12.1 6.5 0.9 46 4.7 NW 20 43 11 23 1009.5 1009.5 0.0

Latest Capital City Observations: Canberra | Sydney | Melbourne | Brisbane | Adelaide | Perth | Hobart | Darwin

Other Formats:

Comma delimited format used in spreadsheet applications
http://www.bom.gov.au/fwo/IDT60901/IDT60901.94975.axf

JavaScript Object Notation format (JSON) in row-major order
http://www.bom.gov.au/fwo/IDT60901/IDT60901.94975.json